Time;durP1;ratioP1;P1;durP2;ratioP2;P2;SDS_P1;SDS_P2;PMS_P1;PMS_P2;Temp;Humidity;BMP_temperature;BMP_pressure;BME280_temperature;BME280_humidity;BME280_pressure;Samples;Min_cycle;Max_cycle;Signal;HPM_P1;HPM_P2
2022/07/27 00:01:04;;;;;;;435.73;404.00;;;18.30;99.90;;;;;;4898287;29;20415;-82
2022/07/27 00:03:32;;;;;;;284.13;270.58;;;18.20;99.90;;;;;;4891971;29;20452;-82
2022/07/27 00:06:00;;;;;;;392.80;371.38;;;18.20;99.90;;;;;;4888919;29;20415;-82
2022/07/27 00:08:28;;;;;;;444.38;418.60;;;18.30;99.90;;;;;;4888858;29;20442;-82
2022/07/27 00:10:56;;;;;;;270.15;257.70;;;18.10;99.90;;;;;;4888931;29;20472;-82
2022/07/27 00:13:24;;;;;;;467.77;442.23;;;18.20;99.90;;;;;;4889937;29;20474;-83
2022/07/27 00:15:51;;;;;;;483.63;452.97;;;18.20;99.90;;;;;;4887004;29;20410;-82
2022/07/27 00:18:19;;;;;;;266.17;252.55;;;18.30;99.90;;;;;;4885197;29;20499;-82
2022/07/27 00:20:47;;;;;;;438.35;413.15;;;18.30;99.90;;;;;;4888588;29;20406;-82
2022/07/27 00:23:15;;;;;;;374.30;350.23;;;18.20;99.90;;;;;;4887258;29;20414;-82
2022/07/27 00:25:43;;;;;;;348.30;325.67;;;18.10;99.90;;;;;;4890490;29;20432;-83
2022/07/27 00:28:10;;;;;;;320.87;305.37;;;18.00;99.90;;;;;;4893951;29;20745;-82
2022/07/27 00:30:38;;;;;;;389.73;369.73;;;18.00;99.90;;;;;;4902003;29;20417;-82
2022/07/27 00:33:05;;;;;;;397.17;372.23;;;17.90;99.90;;;;;;4898371;29;20418;-82
2022/07/27 00:35:33;;;;;;;454.77;427.98;;;17.90;99.90;;;;;;4882009;29;20807;-82
2022/07/27 00:38:02;;;;;;;477.60;447.50;;;17.90;99.90;;;;;;4884841;29;20418;-81
2022/07/27 00:40:30;;;;;;;361.60;339.60;;;17.80;99.90;;;;;;4893606;29;20851;-82
2022/07/27 00:42:58;;;;;;;419.85;391.35;;;17.80;99.90;;;;;;4904666;29;20421;-81
2022/07/27 00:45:25;;;;;;;287.27;273.13;;;17.70;99.90;;;;;;4902095;29;20480;-82
2022/07/27 00:47:53;;;;;;;401.67;376.27;;;17.70;99.90;;;;;;4881904;29;20786;-82
2022/07/27 00:50:22;;;;;;;339.67;322.97;;;17.80;99.90;;;;;;4902279;29;20407;-82
2022/07/27 00:52:50;;;;;;;217.00;208.03;;;17.80;99.90;;;;;;4887529;29;20437;-81
2022/07/27 00:55:18;;;;;;;403.38;380.83;;;17.70;99.90;;;;;;4887563;29;20398;-82
2022/07/27 00:57:46;;;;;;;231.50;221.82;;;17.70;99.90;;;;;;4888549;29;20421;-82
2022/07/27 01:00:27;;;;;;;277.42;264.25;;;17.60;99.90;;;;;;4904303;29;20424;-82
2022/07/27 01:02:55;;;;;;;273.33;261.30;;;17.80;99.90;;;;;;4881191;29;20451;-82
2022/07/27 01:05:24;;;;;;;211.82;203.05;;;17.80;99.90;;;;;;4886786;29;20427;-82
2022/07/27 01:08:04;;;;;;;336.42;313.70;;;17.80;99.90;;;;;;4887560;29;20422;-82
2022/07/27 01:10:32;;;;;;;274.02;261.45;;;17.80;99.90;;;;;;4884441;29;20420;-82
2022/07/27 01:13:00;;;;;;;222.37;213.10;;;17.60;99.90;;;;;;4902146;29;20494;-81
2022/07/27 01:15:28;;;;;;;321.33;307.05;;;17.80;99.90;;;;;;4885887;29;20466;-83
2022/07/27 01:17:56;;;;;;;278.42;263.65;;;17.90;99.90;;;;;;4903554;29;20467;-83
2022/07/27 01:20:23;;;;;;;418.70;397.67;;;17.70;99.90;;;;;;4885204;29;20463;-83
2022/07/27 01:22:51;;;;;;;344.25;328.60;;;17.80;99.90;;;;;;4890927;29;20413;-82
2022/07/27 01:25:19;;;;;;;221.27;212.00;;;17.70;99.90;;;;;;4888722;29;20417;-82
2022/07/27 01:27:46;;;;;;;213.85;204.70;;;17.60;99.90;;;;;;4901817;29;20915;-82
2022/07/27 01:30:26;;;;;;;236.65;226.82;;;17.80;99.90;;;;;;4885193;29;20463;-83
2022/07/27 01:33:04;;;;;;;386.35;368.17;;;17.70;99.90;;;;;;4894554;29;20813;-82
2022/07/27 01:35:33;;;;;;;274.23;262.27;;;17.80;99.90;;;;;;4887366;29;20421;-82
2022/07/27 01:38:00;;;;;;;281.27;268.90;;;17.80;99.90;;;;;;4887171;29;20419;-83
2022/07/27 01:40:29;;;;;;;269.77;257.70;;;17.70;99.90;;;;;;4903634;29;20662;-82
2022/07/27 01:42:57;;;;;;;225.43;215.85;;;17.50;99.90;;;;;;4894437;29;20504;-82
2022/07/27 01:45:24;;;;;;;197.50;189.18;;;17.50;99.90;;;;;;4886654;29;20399;-83
2022/07/27 01:47:52;;;;;;;288.02;274.63;;;17.60;99.90;;;;;;4881029;29;20438;-82
2022/07/27 01:50:19;;;;;;;229.60;219.88;;;17.70;99.90;;;;;;4910959;29;20405;-82
2022/07/27 01:52:47;;;;;;;311.73;296.27;;;17.70;99.90;;;;;;4891242;29;20484;-81
2022/07/27 01:55:15;;;;;;;190.88;182.90;;;17.70;99.90;;;;;;4881145;29;20441;-83
2022/07/27 01:57:42;;;;;;;344.30;329.15;;;17.80;99.90;;;;;;4887751;29;20411;-83
2022/07/27 02:00:11;;;;;;;245.40;235.23;;;17.80;99.90;;;;;;4895567;29;20418;-82
2022/07/27 02:02:39;;;;;;;241.93;231.33;;;17.90;99.90;;;;;;4884782;29;20426;-82
2022/07/27 02:05:11;;;;;;;283.35;271.63;;;17.80;99.90;;;;;;4887599;29;20409;-82
2022/07/27 02:07:40;;;;;;;237.13;227.18;;;17.80;99.90;;;;;;4879500;29;20459;-83
2022/07/27 02:10:09;;;;;;;378.95;362.10;;;17.80;99.90;;;;;;4877427;29;20407;-83
2022/07/27 02:12:37;;;;;;;263.20;252.07;;;17.80;99.90;;;;;;4881475;29;21128;-84
2022/07/27 02:15:07;;;;;;;259.75;248.90;;;17.80;99.90;;;;;;4901657;29;20886;-82
2022/07/27 02:17:42;;;;;;;333.87;316.63;;;17.70;99.90;;;;;;4888469;29;20421;-83
2022/07/27 02:20:13;;;;;;;230.95;221.50;;;17.70;99.90;;;;;;4888529;29;20428;-83
2022/07/27 02:22:41;;;;;;;272.10;260.40;;;17.40;99.90;;;;;;4880426;29;20421;-82
2022/07/27 02:25:10;;;;;;;435.27;413.58;;;17.60;99.90;;;;;;4884350;29;20419;-84
2022/07/27 02:27:39;;;;;;;290.50;278.10;;;17.70;99.90;;;;;;4886067;29;20395;-84
2022/07/27 02:30:09;;;;;;;254.65;241.43;;;17.60;99.90;;;;;;4881240;29;20415;-83
2022/07/27 02:32:36;;;;;;;378.42;360.77;;;17.50;99.90;;;;;;4901078;29;20894;-83
2022/07/27 02:35:04;;;;;;;254.93;243.27;;;17.50;99.90;;;;;;4880116;29;20420;-83
2022/07/27 02:37:47;;;;;;;205.00;196.73;;;17.50;99.90;;;;;;4884816;29;20491;-83
2022/07/27 02:40:16;;;;;;;313.20;298.10;;;17.40;99.90;;;;;;4899790;29;20409;-82
2022/07/27 02:42:45;;;;;;;271.58;260.08;;;17.40;99.90;;;;;;4893612;29;20473;-82
2022/07/27 02:45:16;;;;;;;301.30;286.77;;;17.40;99.90;;;;;;4900287;29;20488;-82
2022/07/27 02:47:44;;;;;;;223.55;214.50;;;17.40;99.90;;;;;;4884362;29;20970;-82
2022/07/27 02:50:12;;;;;;;327.08;311.45;;;17.50;99.90;;;;;;4888498;29;20414;-82
2022/07/27 02:52:40;;;;;;;300.88;287.30;;;17.40;99.90;;;;;;4882671;29;20450;-82
2022/07/27 02:55:08;;;;;;;272.45;260.17;;;17.30;99.90;;;;;;4882617;29;20399;-83
2022/07/27 02:57:39;;;;;;;289.90;277.33;;;17.10;99.90;;;;;;4901993;29;20430;-82
2022/07/27 03:00:10;;;;;;;211.43;202.73;;;17.20;99.90;;;;;;4882783;29;20417;-83
2022/07/27 03:02:38;;;;;;;213.95;205.13;;;17.30;99.90;;;;;;4896455;29;20420;-82
2022/07/27 03:05:08;;;;;;;346.88;331.17;;;17.40;99.90;;;;;;4893342;29;20420;-84
2022/07/27 03:07:36;;;;;;;172.50;165.47;;;17.20;99.90;;;;;;4903549;29;20441;-83
2022/07/27 03:10:04;;;;;;;277.33;265.45;;;17.20;99.90;;;;;;4886365;29;20788;-82
2022/07/27 03:12:32;;;;;;;323.17;307.58;;;17.40;99.90;;;;;;4904785;29;20421;-83
2022/07/27 03:14:59;;;;;;;256.60;245.50;;;17.30;99.90;;;;;;4891711;29;20403;-83
2022/07/27 03:17:27;;;;;;;270.65;259.55;;;17.30;99.90;;;;;;4902262;29;20423;-83
2022/07/27 03:19:55;;;;;;;240.70;231.10;;;17.30;99.90;;;;;;4886461;29;20418;-83
2022/07/27 03:22:22;;;;;;;221.68;213.02;;;17.40;99.90;;;;;;4882127;29;20421;-83
2022/07/27 03:24:50;;;;;;;257.00;246.87;;;17.30;99.90;;;;;;4890001;29;20398;-81
2022/07/27 03:27:17;;;;;;;255.10;245.15;;;17.40;99.90;;;;;;4891207;29;20430;-82
2022/07/27 03:29:45;;;;;;;299.67;285.40;;;17.40;99.90;;;;;;4896032;29;20413;-85
2022/07/27 03:32:12;;;;;;;230.05;220.80;;;17.20;99.90;;;;;;4906039;29;20421;-84
2022/07/27 03:34:40;;;;;;;186.65;179.07;;;17.30;99.90;;;;;;4888836;29;20424;-82
2022/07/27 03:37:07;;;;;;;234.03;224.83;;;17.30;99.90;;;;;;4889367;29;20423;-83
2022/07/27 03:39:35;;;;;;;267.48;256.63;;;17.40;99.90;;;;;;4903756;29;20432;-83
2022/07/27 03:42:03;;;;;;;230.55;221.25;;;17.40;99.90;;;;;;4897355;29;20503;-84
2022/07/27 03:44:30;;;;;;;188.17;180.60;;;17.40;99.90;;;;;;4895152;29;20398;-83
2022/07/27 03:46:58;;;;;;;232.73;222.57;;;17.40;99.90;;;;;;4886310;29;20419;-82
2022/07/27 03:49:26;;;;;;;182.45;175.10;;;17.20;99.90;;;;;;4885281;29;20425;-83
2022/07/27 03:51:53;;;;;;;207.70;199.18;;;17.10;99.90;;;;;;4896658;29;20534;-83
2022/07/27 03:54:21;;;;;;;190.45;182.38;;;17.10;99.90;;;;;;4883688;29;20415;-82
2022/07/27 03:56:48;;;;;;;282.70;269.98;;;17.20;99.90;;;;;;4888478;29;20915;-82
2022/07/27 03:59:16;;;;;;;332.05;317.92;;;17.10;99.90;;;;;;4889113;29;20405;-82
2022/07/27 04:01:44;;;;;;;133.33;127.60;;;17.20;99.90;;;;;;4896628;29;20431;-82
2022/07/27 04:04:12;;;;;;;134.32;128.32;;;17.00;99.90;;;;;;4895085;29;20411;-82
2022/07/27 04:06:40;;;;;;;158.20;151.80;;;17.10;99.90;;;;;;4889667;29;20410;-83
2022/07/27 04:09:07;;;;;;;227.70;218.33;;;17.10;99.90;;;;;;4890912;29;20829;-82
2022/07/27 04:11:36;;;;;;;228.43;216.25;;;17.10;99.90;;;;;;4890926;29;20537;-82
2022/07/27 04:14:11;;;;;;;245.38;234.50;;;17.00;99.90;;;;;;4902836;29;20423;-83
2022/07/27 04:16:40;;;;;;;207.15;198.45;;;17.00;99.90;;;;;;4896281;29;20422;-83
2022/07/27 04:19:08;;;;;;;196.67;188.83;;;17.00;99.90;;;;;;4887687;29;20406;-83
2022/07/27 04:21:36;;;;;;;184.18;176.82;;;17.10;99.90;;;;;;4887141;29;20475;-82
2022/07/27 04:24:05;;;;;;;210.20;201.30;;;17.20;99.90;;;;;;4901656;29;20424;-81
2022/07/27 04:26:33;;;;;;;163.98;157.20;;;17.20;99.90;;;;;;4888834;29;20426;-81
2022/07/27 04:29:00;;;;;;;227.43;218.13;;;17.10;99.90;;;;;;4898572;29;20399;-82
2022/07/27 04:31:28;;;;;;;162.13;155.23;;;16.90;99.90;;;;;;4898529;29;20414;-81
2022/07/27 04:33:56;;;;;;;277.05;264.33;;;16.90;99.90;;;;;;4876489;29;20428;-81
2022/07/27 04:36:24;;;;;;;242.98;232.90;;;16.90;99.90;;;;;;4895748;29;20422;-82
2022/07/27 04:38:51;;;;;;;200.95;192.57;;;17.00;99.90;;;;;;4895065;29;20484;-80
2022/07/27 04:41:19;;;;;;;185.50;177.60;;;17.10;99.90;;;;;;4898755;29;20426;-82
2022/07/27 04:43:49;;;;;;;191.48;183.13;;;17.00;99.90;;;;;;4892613;29;20413;-81
2022/07/27 04:46:17;;;;;;;242.75;232.68;;;16.90;99.90;;;;;;4883062;29;20415;-81
2022/07/27 04:48:45;;;;;;;218.90;209.98;;;16.90;99.90;;;;;;4890012;29;20420;-82
2022/07/27 04:51:16;;;;;;;171.50;164.38;;;17.00;99.90;;;;;;4887830;29;20407;-81
2022/07/27 04:53:44;;;;;;;196.23;188.30;;;17.10;99.90;;;;;;4897698;29;20942;-81
2022/07/27 04:56:25;;;;;;;259.73;248.60;;;17.10;99.90;;;;;;4898283;29;20426;-81
2022/07/27 04:58:56;;;;;;;255.88;245.38;;;17.10;99.90;;;;;;4887550;29;20419;-81
2022/07/27 05:01:24;;;;;;;216.35;207.73;;;17.10;99.90;;;;;;4898464;29;20919;-81
2022/07/27 05:03:56;;;;;;;228.40;217.83;;;17.10;99.90;;;;;;4879148;29;20478;-81
2022/07/27 05:06:24;;;;;;;174.25;166.98;;;16.90;99.90;;;;;;4895381;29;20399;-81
2022/07/27 05:08:51;;;;;;;219.30;210.63;;;17.00;99.90;;;;;;4905387;29;20445;-81
2022/07/27 05:11:19;;;;;;;238.68;229.23;;;16.90;99.90;;;;;;4886688;29;21019;-82
2022/07/27 05:13:47;;;;;;;195.52;187.25;;;16.90;99.90;;;;;;4886717;29;20414;-81
2022/07/27 05:16:14;;;;;;;175.65;167.98;;;16.90;99.90;;;;;;4896059;29;20417;-82
2022/07/27 05:18:42;;;;;;;185.13;177.07;;;17.00;99.90;;;;;;4904013;29;20849;-82
2022/07/27 05:21:09;;;;;;;247.97;237.47;;;16.90;99.90;;;;;;4901548;29;20406;-80
2022/07/27 05:23:37;;;;;;;143.80;137.82;;;16.70;99.90;;;;;;4882721;29;20415;-82
2022/07/27 05:26:04;;;;;;;204.63;195.88;;;16.80;99.90;;;;;;4902295;29;20751;-82
2022/07/27 05:28:32;;;;;;;162.98;156.30;;;16.90;99.90;;;;;;4880608;29;20405;-81
2022/07/27 05:31:00;;;;;;;169.37;161.83;;;17.00;99.90;;;;;;4887822;29;20403;-81
2022/07/27 05:33:27;;;;;;;193.73;185.85;;;16.80;99.90;;;;;;4893986;29;20405;-80
2022/07/27 05:35:55;;;;;;;185.98;177.50;;;16.70;99.90;;;;;;4903238;29;20410;-81
2022/07/27 05:38:23;;;;;;;194.00;185.85;;;16.60;99.90;;;;;;4887089;29;20426;-80
2022/07/27 05:40:52;;;;;;;207.88;199.25;;;16.60;99.90;;;;;;4889274;29;20416;-81
2022/07/27 05:43:19;;;;;;;232.02;222.57;;;16.50;99.90;;;;;;4887048;29;20432;-81
2022/07/27 05:45:47;;;;;;;213.77;204.77;;;16.50;99.90;;;;;;4882313;29;20411;-81
2022/07/27 05:48:15;;;;;;;180.48;172.38;;;16.60;99.90;;;;;;4879104;29;20409;-80
2022/07/27 05:50:43;;;;;;;173.98;166.98;;;16.50;99.90;;;;;;4887955;29;20423;-82
2022/07/27 05:53:10;;;;;;;168.43;161.50;;;16.50;99.90;;;;;;4893363;29;20967;-81
2022/07/27 05:55:38;;;;;;;171.20;163.43;;;16.60;99.90;;;;;;4903559;29;20428;-81
2022/07/27 05:58:28;;;;;;;207.45;199.30;;;16.60;99.90;;;;;;4900873;29;20421;-81
2022/07/27 06:00:56;;;;;;;200.83;191.47;;;16.70;99.90;;;;;;4888626;29;20782;-81
2022/07/27 06:03:24;;;;;;;170.93;163.70;;;16.70;99.90;;;;;;4893679;29;20442;-81
2022/07/27 06:07:57;;;;;;;218.15;209.02;;;16.60;99.90;;;;;;4887693;29;20398;-81
2022/07/27 06:08:39;;;;;;;201.67;192.83;;;16.50;99.90;;;;;;4886940;29;20407;-81
2022/07/27 06:11:07;;;;;;;184.45;177.27;;;16.60;99.90;;;;;;4902166;29;20910;-82
2022/07/27 06:13:35;;;;;;;134.15;128.55;;;16.70;99.90;;;;;;4894797;29;20480;-82
2022/07/27 06:16:05;;;;;;;182.18;174.63;;;16.80;99.90;;;;;;4921848;29;20408;-81
2022/07/27 06:18:32;;;;;;;227.65;218.60;;;16.80;99.90;;;;;;4889537;29;20421;-81
2022/07/27 06:21:01;;;;;;;204.95;196.07;;;16.80;99.90;;;;;;4893559;29;20420;-81
2022/07/27 06:23:29;;;;;;;172.18;165.23;;;16.80;99.90;;;;;;4892746;29;20950;-81
2022/07/27 06:25:56;;;;;;;154.85;148.23;;;16.70;99.90;;;;;;4901226;29;20410;-81
2022/07/27 06:28:24;;;;;;;149.20;143.10;;;16.60;99.90;;;;;;4885963;29;20401;-81
2022/07/27 06:30:55;;;;;;;186.32;178.13;;;16.70;99.90;;;;;;4886658;29;20458;-81
2022/07/27 06:33:29;;;;;;;207.43;198.25;;;16.60;99.90;;;;;;4889588;29;20420;-81
2022/07/27 06:35:58;;;;;;;185.55;178.05;;;16.50;99.90;;;;;;4888407;29;20417;-81
2022/07/27 06:38:28;;;;;;;181.15;173.18;;;16.50;99.90;;;;;;4887799;29;20423;-82
2022/07/27 06:40:56;;;;;;;208.20;199.10;;;16.60;99.90;;;;;;4906262;29;20509;-81
2022/07/27 06:43:29;;;;;;;166.03;159.47;;;16.40;99.90;;;;;;4886286;29;20505;-81
2022/07/27 06:45:58;;;;;;;181.07;172.95;;;16.60;99.90;;;;;;4891827;29;20441;-80
2022/07/27 06:48:26;;;;;;;169.70;162.77;;;16.60;99.90;;;;;;4909922;29;20421;-81
2022/07/27 06:50:54;;;;;;;160.10;152.90;;;16.60;99.90;;;;;;4892984;29;20757;-81
2022/07/27 06:53:21;;;;;;;186.85;178.98;;;16.50;99.90;;;;;;4878497;29;20490;-81
2022/07/27 06:55:50;;;;;;;175.15;168.07;;;16.50;99.90;;;;;;4894495;29;20401;-80
2022/07/27 06:58:18;;;;;;;225.02;215.80;;;16.50;99.90;;;;;;4887699;29;20767;-80
2022/07/27 07:00:46;;;;;;;189.63;181.93;;;16.60;99.90;;;;;;4888124;29;20459;-81
2022/07/27 07:03:13;;;;;;;169.88;162.77;;;16.60;99.90;;;;;;4892819;29;20512;-82
2022/07/27 07:05:44;;;;;;;175.63;167.65;;;16.50;99.90;;;;;;4898278;29;20834;-82
2022/07/27 07:08:13;;;;;;;225.07;215.73;;;16.50;99.90;;;;;;4887286;29;20514;-82
2022/07/27 07:10:43;;;;;;;228.73;220.02;;;16.60;99.90;;;;;;4883862;29;20419;-81
2022/07/27 07:13:11;;;;;;;246.32;236.68;;;16.70;99.90;;;;;;4885232;29;20421;-81
2022/07/27 07:15:40;;;;;;;198.57;190.60;;;16.60;99.90;;;;;;4919717;29;20910;-82
2022/07/27 07:18:09;;;;;;;209.27;200.10;;;16.80;99.90;;;;;;4887424;29;20513;-81
2022/07/27 07:20:37;;;;;;;270.58;259.73;;;16.70;99.90;;;;;;4901726;29;20414;-82
2022/07/27 07:23:05;;;;;;;221.05;211.15;;;16.60;99.90;;;;;;4885828;29;20403;-82
2022/07/27 07:25:34;;;;;;;253.03;241.80;;;16.50;99.90;;;;;;4890264;29;20914;-82
2022/07/27 07:28:02;;;;;;;249.77;239.30;;;16.40;99.90;;;;;;4908591;29;20424;-82
2022/07/27 07:30:30;;;;;;;173.07;165.93;;;16.50;99.90;;;;;;4892971;29;20417;-81
2022/07/27 07:32:59;;;;;;;189.00;181.48;;;16.50;99.90;;;;;;4899222;29;20422;-82
2022/07/27 07:35:28;;;;;;;179.15;171.90;;;16.50;99.90;;;;;;4890822;29;20415;-82
2022/07/27 07:37:57;;;;;;;214.95;206.07;;;16.60;99.90;;;;;;4889608;29;20466;-82
2022/07/27 07:40:27;;;;;;;244.52;235.20;;;16.60;99.90;;;;;;4888970;29;20519;-82
2022/07/27 07:43:13;;;;;;;273.27;262.27;;;16.60;99.90;;;;;;4901646;29;20712;-82
2022/07/27 07:45:49;;;;;;;215.90;207.20;;;16.60;99.90;;;;;;4879465;29;20415;-81
2022/07/27 07:48:22;;;;;;;226.50;217.45;;;16.50;99.90;;;;;;4886063;29;20477;-82
2022/07/27 07:50:52;;;;;;;278.45;267.00;;;16.50;99.90;;;;;;4885823;29;20415;-82
2022/07/27 07:53:22;;;;;;;200.68;192.13;;;16.60;99.90;;;;;;4886995;29;20437;-81
2022/07/27 07:55:58;;;;;;;180.18;172.43;;;16.40;99.90;;;;;;4901019;29;20486;-81
2022/07/27 07:58:27;;;;;;;206.93;198.20;;;16.30;99.90;;;;;;4874910;29;20427;-82
2022/07/27 08:00:55;;;;;;;171.33;164.17;;;16.40;99.90;;;;;;4886587;29;20469;-82
2022/07/27 08:03:24;;;;;;;181.93;174.10;;;16.40;99.90;;;;;;4881413;29;20790;-81
2022/07/27 08:05:53;;;;;;;191.27;183.27;;;16.40;99.90;;;;;;4888598;29;20409;-82
2022/07/27 08:08:22;;;;;;;193.07;184.50;;;16.30;99.90;;;;;;4902412;29;20507;-82
2022/07/27 08:10:53;;;;;;;186.98;178.93;;;16.40;99.90;;;;;;4902675;29;20445;-81
2022/07/27 08:13:23;;;;;;;179.10;171.90;;;16.40;99.90;;;;;;4896363;29;20773;-82
2022/07/27 08:15:53;;;;;;;180.90;173.55;;;16.40;99.90;;;;;;4896045;29;20816;-82
2022/07/27 08:18:24;;;;;;;200.98;191.45;;;16.40;99.90;;;;;;4902647;29;20428;-81
2022/07/27 08:20:52;;;;;;;199.67;191.77;;;16.40;99.90;;;;;;4888830;29;20765;-82
2022/07/27 08:23:20;;;;;;;152.70;146.48;;;16.30;99.90;;;;;;4883833;29;20485;-82
2022/07/27 08:25:48;;;;;;;203.85;195.70;;;16.40;99.90;;;;;;4889976;29;20518;-82
2022/07/27 08:28:17;;;;;;;206.68;198.02;;;16.50;99.90;;;;;;4901761;29;20479;-82
2022/07/27 08:30:46;;;;;;;190.85;183.30;;;16.50;99.90;;;;;;4905343;29;20504;-82
2022/07/27 08:33:17;;;;;;;188.13;180.50;;;16.50;99.90;;;;;;4901587;29;20436;-82
2022/07/27 08:35:45;;;;;;;188.48;181.10;;;16.50;99.90;;;;;;4902667;29;20478;-82
2022/07/27 08:38:15;;;;;;;188.52;181.13;;;16.60;99.90;;;;;;4894305;29;20451;-82
2022/07/27 08:40:45;;;;;;;153.40;146.98;;;16.70;99.90;;;;;;4893754;29;20470;-82
2022/07/27 08:43:15;;;;;;;144.77;138.80;;;16.50;99.90;;;;;;4879509;29;20431;-83
2022/07/27 08:45:56;;;;;;;226.07;217.13;;;16.60;99.90;;;;;;4878518;29;20483;-82
2022/07/27 08:48:27;;;;;;;157.50;150.85;;;16.70;99.90;;;;;;4893795;29;20474;-83
2022/07/27 08:50:56;;;;;;;170.25;163.55;;;16.60;99.90;;;;;;4882619;29;20851;-82
2022/07/27 08:53:25;;;;;;;198.48;190.77;;;16.60;99.90;;;;;;4895098;29;20461;-82
2022/07/27 08:56:12;;;;;;;166.55;159.18;;;16.60;99.90;;;;;;4888620;29;20830;-81
2022/07/27 08:58:40;;;;;;;158.00;150.90;;;16.60;99.90;;;;;;4886074;29;20413;-83
2022/07/27 09:01:10;;;;;;;143.35;137.25;;;16.60;99.90;;;;;;4887621;29;20406;-82
2022/07/27 09:03:37;;;;;;;138.88;133.10;;;16.60;99.90;;;;;;4893371;29;20401;-82
2022/07/27 09:06:05;;;;;;;146.05;139.82;;;16.60;99.90;;;;;;4889477;29;20423;-83
2022/07/27 09:08:34;;;;;;;137.17;131.20;;;16.70;99.90;;;;;;4891437;29;20428;-82
2022/07/27 09:11:13;;;;;;;145.63;139.68;;;16.60;99.90;;;;;;4883934;29;20418;-83
2022/07/27 09:13:41;;;;;;;162.15;155.43;;;16.60;99.90;;;;;;4880881;29;20449;-82
2022/07/27 09:16:10;;;;;;;149.27;142.98;;;16.60;99.90;;;;;;4891930;29;20797;-83
2022/07/27 09:18:57;;;;;;;151.32;145.13;;;16.60;99.90;;;;;;4899260;29;20936;-82
2022/07/27 09:21:25;;;;;;;163.85;156.98;;;16.60;99.90;;;;;;4893980;29;20508;-82
2022/07/27 09:23:54;;;;;;;142.30;136.07;;;16.70;99.90;;;;;;4895614;29;20427;-82
2022/07/27 09:26:24;;;;;;;139.60;133.63;;;16.60;99.90;;;;;;4903396;29;20471;-82
2022/07/27 09:29:14;;;;;;;168.65;162.05;;;16.70;99.90;;;;;;4890667;29;20773;-81
2022/07/27 09:31:50;;;;;;;161.40;154.85;;;16.80;99.90;;;;;;4888986;29;20405;-82
2022/07/27 09:34:32;;;;;;;171.80;165.13;;;17.00;99.90;;;;;;4888180;29;20471;-81
2022/07/27 09:37:02;;;;;;;138.68;133.10;;;17.10;99.90;;;;;;4886033;29;20436;-81
2022/07/27 09:39:32;;;;;;;169.43;162.77;;;17.20;99.90;;;;;;4891161;29;20424;-81
2022/07/27 09:42:01;;;;;;;156.85;150.27;;;17.20;99.90;;;;;;4887218;29;20835;-82
2022/07/27 09:44:36;;;;;;;164.67;157.33;;;17.30;99.90;;;;;;4899123;29;20434;-81
2022/07/27 09:47:26;;;;;;;144.73;138.60;;;17.30;99.90;;;;;;4895451;29;20418;-81
2022/07/27 09:50:17;;;;;;;159.00;152.25;;;17.50;99.90;;;;;;4883567;29;20517;-81
2022/07/27 09:52:46;;;;;;;158.75;151.25;;;17.60;99.90;;;;;;4887279;29;20417;-81
2022/07/27 09:55:18;;;;;;;142.57;136.18;;;17.40;99.90;;;;;;4879450;29;20421;-81
2022/07/27 09:57:57;;;;;;;155.67;149.47;;;17.40;99.90;;;;;;4885811;29;20505;-82
2022/07/27 10:00:26;;;;;;;171.07;163.43;;;17.50;99.90;;;;;;4891660;29;20466;-82
2022/07/27 10:02:53;;;;;;;166.90;160.18;;;17.70;99.90;;;;;;4887844;29;20778;-82
2022/07/27 10:05:22;;;;;;;185.00;176.93;;;17.80;99.90;;;;;;4901479;29;20922;-82
2022/07/27 10:07:52;;;;;;;166.25;158.93;;;18.00;99.90;;;;;;4895393;29;20429;-82
2022/07/27 10:10:22;;;;;;;161.70;155.00;;;18.20;99.90;;;;;;4895225;29;20979;-82
2022/07/27 10:12:51;;;;;;;147.75;139.73;;;18.20;99.90;;;;;;4900867;29;20508;-82
2022/07/27 10:15:23;;;;;;;153.82;146.73;;;18.00;99.90;;;;;;4894236;29;20407;-81
2022/07/27 10:18:05;;;;;;;172.83;165.43;;;18.20;99.90;;;;;;4892073;29;20391;-82
2022/07/27 10:20:38;;;;;;;160.95;153.82;;;18.20;99.90;;;;;;4887953;29;20917;-82
2022/07/27 10:23:06;;;;;;;164.05;157.40;;;18.20;99.90;;;;;;4876351;29;20486;-82
2022/07/27 10:25:34;;;;;;;141.02;134.90;;;18.10;99.90;;;;;;4885832;29;20411;-81
2022/07/27 10:28:18;;;;;;;127.17;121.43;;;18.10;99.90;;;;;;4887865;29;20420;-83
2022/07/27 10:30:45;;;;;;;151.35;145.40;;;18.00;99.90;;;;;;4881531;29;20415;-83
2022/07/27 10:33:46;;;;;;;144.30;138.23;;;18.00;99.90;;;;;;4901738;29;20413;-82
2022/07/27 10:36:23;;;;;;;120.25;115.20;;;18.20;99.90;;;;;;4885359;29;20413;-82
2022/07/27 10:38:55;;;;;;;138.68;132.95;;;18.10;99.90;;;;;;4891688;29;20421;-83
2022/07/27 10:41:24;;;;;;;147.50;141.18;;;18.00;99.90;;;;;;4885682;29;20430;-81
2022/07/27 10:44:27;;;;;;;146.68;140.30;;;17.90;99.90;;;;;;4882430;29;20411;-82
2022/07/27 10:47:00;;;;;;;145.07;138.40;;;17.90;99.90;;;;;;4887894;29;20490;-82
2022/07/27 10:49:31;;;;;;;154.68;148.18;;;17.90;99.90;;;;;;4895710;29;20426;-82
2022/07/27 10:52:26;;;;;;;151.83;145.37;;;18.10;99.90;;;;;;4884262;29;20452;-82
2022/07/27 10:54:55;;;;;;;119.40;114.13;;;18.40;99.90;;;;;;4894360;29;20512;-82
2022/07/27 10:57:26;;;;;;;136.73;130.90;;;18.50;99.90;;;;;;4897468;29;20426;-83
2022/07/27 10:59:54;;;;;;;144.00;137.67;;;18.60;99.90;;;;;;4902220;29;20417;-82
2022/07/27 11:02:42;;;;;;;152.52;145.52;;;18.70;99.90;;;;;;4895738;29;20402;-82
2022/07/27 11:05:10;;;;;;;115.07;110.07;;;18.80;99.90;;;;;;4902204;29;20421;-82
2022/07/27 11:07:58;;;;;;;119.28;113.90;;;18.90;99.90;;;;;;4888152;29;20389;-82
2022/07/27 11:10:47;;;;;;;108.40;103.60;;;18.90;99.90;;;;;;4893369;29;20412;-82
2022/07/27 11:13:20;;;;;;;115.43;110.13;;;18.80;99.90;;;;;;4899540;29;20514;-81
2022/07/27 11:16:05;;;;;;;127.70;122.00;;;19.00;99.90;;;;;;4892542;29;20415;-82
2022/07/27 11:19:00;;;;;;;124.67;119.37;;;19.10;99.90;;;;;;4883191;29;20900;-82
2022/07/27 11:21:31;;;;;;;54.25;51.45;;;19.10;99.90;;;;;;4876199;29;20418;-82
2022/07/27 11:24:06;;;;;;;107.03;102.13;;;19.10;99.90;;;;;;4882686;29;20994;-81
2022/07/27 11:26:43;;;;;;;120.73;115.67;;;19.00;99.90;;;;;;4901573;29;20409;-82
2022/07/27 11:29:13;;;;;;;121.95;116.35;;;18.80;99.90;;;;;;4897273;29;20420;-82
2022/07/27 11:31:44;;;;;;;120.53;115.07;;;18.60;99.90;;;;;;4885831;29;20419;-82
2022/07/27 11:34:35;;;;;;;140.95;134.38;;;18.50;99.90;;;;;;4879165;29;20419;-82
2022/07/27 11:37:11;;;;;;;137.35;131.13;;;18.40;99.90;;;;;;4886667;29;20448;-82
2022/07/27 11:39:39;;;;;;;163.27;156.48;;;18.30;99.90;;;;;;4894532;29;20426;-82
2022/07/27 11:42:38;;;;;;;124.78;119.15;;;18.30;99.90;;;;;;4887877;29;20452;-83
2022/07/27 11:45:08;;;;;;;99.82;95.43;;;18.30;99.90;;;;;;4902361;29;20827;-82
2022/07/27 11:47:36;;;;;;;130.52;125.00;;;18.20;99.90;;;;;;4891166;29;20774;-81
2022/07/27 11:50:06;;;;;;;148.93;142.70;;;18.20;99.90;;;;;;4907455;29;20433;-81
2022/07/27 11:52:33;;;;;;;90.63;86.57;;;18.20;99.90;;;;;;4903596;29;20417;-82
2022/07/27 11:55:01;;;;;;;127.55;122.22;;;18.20;99.90;;;;;;4897197;29;20879;-82
2022/07/27 11:57:32;;;;;;;127.60;122.30;;;18.20;99.90;;;;;;4889935;29;20403;-81
2022/07/27 12:00:01;;;;;;;231.65;222.57;;;18.20;99.90;;;;;;4887666;29;20444;-80
2022/07/27 12:02:48;;;;;;;105.53;100.97;;;18.30;99.90;;;;;;4893706;29;20391;-82
2022/07/27 12:05:16;;;;;;;140.53;134.80;;;18.30;99.90;;;;;;4878969;29;20747;-82
2022/07/27 12:07:44;;;;;;;151.93;145.95;;;18.40;99.90;;;;;;4888270;29;20415;-82
2022/07/27 12:10:12;;;;;;;174.25;166.52;;;18.40;99.90;;;;;;4905196;29;20422;-82
2022/07/27 12:12:40;;;;;;;124.33;118.93;;;18.50;99.90;;;;;;4882508;29;20421;-83
2022/07/27 12:15:18;;;;;;;180.73;173.10;;;18.50;99.90;;;;;;4888327;29;20636;-81
2022/07/27 12:18:06;;;;;;;144.97;139.10;;;18.50;99.90;;;;;;4888764;29;20402;-82
2022/07/27 12:20:36;;;;;;;150.70;144.02;;;18.50;99.90;;;;;;4890141;29;20466;-83
2022/07/27 12:23:05;;;;;;;163.88;157.05;;;18.80;99.90;;;;;;4890401;29;20645;-82
2022/07/27 12:25:35;;;;;;;147.35;140.75;;;18.90;99.90;;;;;;4882145;29;20419;-81